KRDR/RDR METAR and TAF weather

Enter ICAO airport designator
Station Type Date Time Source
KRDR METAR 2019/04/19 07:56 UTC NOAA

KRDR 190756Z AUTO 24005KT 10SM CLR 02/02 A3000 RMK AO2 SLPNO T00200019 $


Station Type Date Time Source
KRDR Decoded METAR 2019/04/19 07:56 UTC NOAA

Grand Forks Air Force Base, ND, United States (KRDR) 47-58N 097-24W 278M
Apr 19, 2019 - 03:56 AM EDT / 2019.04.19 0756 UTC
Wind: from the WSW (240 degrees) at 6 MPH (5 KT):0
Visibility: 10 mile(s):0
Sky conditions: clear
Temperature: 35.6 F (2.0 C)
Dew Point: 35.4 F (1.9 C)
Relative Humidity: 99%
Pressure (altimeter): 30 in. Hg (1015 hPa)
ob: KRDR 190756Z AUTO 24005KT 10SM CLR 02/02 A3000 RMK AO2 SLPNO T00200019
cycle: 8

Station Type Date Time Source
KRDR TAF 2019/04/19 02:12 UTC NOAA

TAF KRDR 190200Z 1902/2008 25009KT 9999 SKC QNH2970INS
BECMG 1917/1918 20010G20KT 9999 FEW200 QNH2960INS
BECMG 1922/1923 19012KT 9999 SCT070 BKN120 QNH2955INS TX17/1919Z TN01/1910Z

Example: see airport list